Time;durP1;ratioP1;P1;durP2;ratioP2;P2;SDS_P1;SDS_P2;PMS_P1;PMS_P2;Temp;Humidity;BMP_temperature;BMP_pressure;BME280_temperature;BME280_humidity;BME280_pressure;Samples;Min_cycle;Max_cycle;Signal;HPM_P1;HPM_P2
2022/05/14 00:00:42;;;;;;;8.47;3.00;;;11.40;99.90;;;;;;4976798;28;20178;-77
2022/05/14 00:03:08;;;;;;;7.37;2.23;;;11.40;99.90;;;;;;4975634;28;20649;-76
2022/05/14 00:05:34;;;;;;;6.57;2.60;;;11.30;99.90;;;;;;4976845;28;20546;-76
2022/05/14 00:07:59;;;;;;;6.37;2.47;;;11.30;99.90;;;;;;5012384;22;20264;-74
2022/05/14 00:10:27;;;;;;;4.60;2.27;;;11.20;99.90;;;;;;4993099;28;20177;-74
2022/05/14 00:13:05;;;;;;;6.40;2.20;;;11.20;99.90;;;;;;4993032;28;20166;-73
2022/05/14 00:15:42;;;;;;;6.27;2.30;;;11.20;99.90;;;;;;4993471;28;20161;-73
2022/05/14 00:18:09;;;;;;;6.20;2.53;;;11.10;99.90;;;;;;4991817;28;20314;-73
2022/05/14 00:20:38;;;;;;;4.33;1.97;;;11.10;99.90;;;;;;4993106;28;20652;-73
2022/05/14 00:23:05;;;;;;;5.53;2.40;;;11.10;99.90;;;;;;4993311;28;20227;-73
2022/05/14 00:25:30;;;;;;;5.43;2.20;;;11.00;99.90;;;;;;4992966;28;20264;-73
2022/05/14 00:27:56;;;;;;;7.53;2.47;;;11.00;99.90;;;;;;4992694;28;20691;-73
2022/05/14 00:30:25;;;;;;;5.23;2.40;;;11.00;99.90;;;;;;4993130;28;20178;-73
2022/05/14 00:32:52;;;;;;;4.97;2.63;;;10.90;99.90;;;;;;4993116;28;20261;-73
2022/05/14 00:35:18;;;;;;;4.90;2.30;;;10.80;99.90;;;;;;4992852;28;20178;-73
2022/05/14 00:37:44;;;;;;;7.83;2.37;;;10.70;99.90;;;;;;4992643;28;20668;-73
2022/05/14 00:40:15;;;;;;;4.73;2.37;;;10.70;99.90;;;;;;4991587;28;20216;-73
2022/05/14 00:42:42;;;;;;;6.50;2.60;;;10.70;99.90;;;;;;4993054;28;20180;-73
2022/05/14 00:45:08;;;;;;;5.43;2.30;;;10.60;99.90;;;;;;4992896;28;20189;-73
2022/05/14 00:47:39;;;;;;;7.43;2.47;;;10.50;99.90;;;;;;4992754;28;20182;-73
2022/05/14 00:50:35;;;;;;;3.93;2.40;;;10.50;99.90;;;;;;4992975;28;20174;-73
2022/05/14 00:53:27;;;;;;;8.77;2.90;;;10.40;99.90;;;;;;4992646;28;20166;-73
2022/05/14 00:55:56;;;;;;;4.13;2.40;;;10.40;99.90;;;;;;4992330;28;20197;-73
2022/05/14 00:58:34;;;;;;;5.63;2.80;;;10.30;99.90;;;;;;4992541;28;20205;-73
2022/05/14 01:01:00;;;;;;;5.40;2.83;;;10.30;99.90;;;;;;4992844;28;20162;-73
2022/05/14 01:03:26;;;;;;;7.30;2.83;;;10.20;99.90;;;;;;4992293;28;20192;-73
2022/05/14 01:05:53;;;;;;;4.10;2.23;;;10.20;99.90;;;;;;4990440;28;20170;-73
2022/05/14 01:08:19;;;;;;;5.80;2.60;;;9.80;99.90;;;;;;4991858;28;20206;-73
2022/05/14 01:10:46;;;;;;;4.17;2.00;;;10.10;99.90;;;;;;4992542;28;20542;-73
2022/05/14 01:13:13;;;;;;;6.27;2.33;;;10.10;99.90;;;;;;4992621;28;20174;-73
2022/05/14 01:16:14;;;;;;;4.87;2.33;;;10.10;99.90;;;;;;4991036;28;20654;-73
2022/05/14 01:18:40;;;;;;;6.33;2.77;;;10.10;99.90;;;;;;5012365;28;20216;-73
2022/05/14 01:21:11;;;;;;;4.00;2.50;;;10.00;99.90;;;;;;4996534;28;20195;-73
2022/05/14 01:26:52;;;;;;;4.87;2.57;;;9.90;99.90;;;;;;4992076;28;20164;-73
2022/05/14 01:29:24;;;;;;;6.27;2.83;;;9.90;99.90;;;;;;4991905;28;20193;-73
2022/05/14 01:31:52;;;;;;;4.63;2.53;;;9.90;99.90;;;;;;4990687;28;20178;-73
2022/05/14 01:34:33;;;;;;;6.00;2.17;;;9.90;99.90;;;;;;4990696;28;20666;-72
2022/05/14 01:36:59;;;;;;;4.67;2.47;;;9.90;99.90;;;;;;4992047;28;20531;-73
2022/05/14 01:39:25;;;;;;;3.83;2.40;;;9.80;99.90;;;;;;4990545;28;20205;-73
2022/05/14 01:41:51;;;;;;;6.60;2.90;;;9.80;99.90;;;;;;4991702;28;20260;-73
2022/05/14 01:44:17;;;;;;;4.93;2.60;;;9.80;99.90;;;;;;4990488;28;20265;-73
2022/05/14 01:46:43;;;;;;;6.37;2.60;;;9.80;99.90;;;;;;4990446;28;20181;-72
2022/05/14 01:49:09;;;;;;;7.30;2.90;;;9.70;99.90;;;;;;4991390;28;20209;-73
2022/05/14 01:51:35;;;;;;;6.70;2.73;;;9.70;99.90;;;;;;4991657;28;20670;-73
2022/05/14 01:54:01;;;;;;;3.87;2.40;;;9.70;99.90;;;;;;4991628;28;20174;-73
2022/05/14 01:56:26;;;;;;;4.63;2.60;;;9.70;99.90;;;;;;4991574;28;20178;-73
2022/05/14 01:58:52;;;;;;;4.47;3.00;;;9.70;99.90;;;;;;4991472;28;20205;-73
2022/05/14 02:01:23;;;;;;;4.57;2.50;;;9.70;99.90;;;;;;4991351;28;20170;-73
2022/05/14 02:04:01;;;;;;;6.37;2.73;;;9.70;99.90;;;;;;4991833;28;20169;-73
2022/05/14 02:06:29;;;;;;;5.27;2.47;;;9.70;99.90;;;;;;4991736;28;20166;-74
2022/05/14 02:08:55;;;;;;;5.30;2.60;;;9.70;99.90;;;;;;4990128;28;20217;-73
2022/05/14 02:11:21;;;;;;;6.10;2.87;;;9.70;99.90;;;;;;4991322;28;20181;-73
2022/05/14 02:13:49;;;;;;;2.90;2.40;;;9.70;99.90;;;;;;4991244;28;20188;-73
2022/05/14 02:16:15;;;;;;;4.90;2.53;;;9.60;99.90;;;;;;4989832;28;20177;-73
2022/05/14 02:18:41;;;;;;;3.77;2.60;;;9.60;99.90;;;;;;4990895;28;20259;-73
2022/05/14 02:21:07;;;;;;;4.90;2.20;;;9.60;99.90;;;;;;4991364;28;20583;-73
2022/05/14 02:23:36;;;;;;;3.67;2.27;;;9.60;99.90;;;;;;4991187;28;20260;-74
2022/05/14 02:26:02;;;;;;;3.30;2.10;;;9.60;99.90;;;;;;4991126;28;20166;-73
2022/05/14 02:28:28;;;;;;;2.53;2.23;;;9.60;99.90;;;;;;4991147;28;20198;-73
2022/05/14 02:30:53;;;;;;;3.30;2.30;;;9.60;99.90;;;;;;4989982;28;20184;-73
2022/05/14 02:33:19;;;;;;;6.03;2.40;;;9.60;99.90;;;;;;4989943;28;20173;-73
2022/05/14 02:35:44;;;;;;;4.37;2.60;;;9.50;99.90;;;;;;4991294;28;20174;-73
2022/05/14 02:38:11;;;;;;;4.87;3.20;;;9.50;99.90;;;;;;4990942;28;20209;-73
2022/05/14 02:40:36;;;;;;;5.80;3.13;;;9.50;99.90;;;;;;4991418;28;20169;-73
2022/05/14 02:43:02;;;;;;;5.07;3.00;;;9.50;99.90;;;;;;4990962;28;20541;-73
2022/05/14 02:45:28;;;;;;;5.10;2.60;;;9.40;99.90;;;;;;4991410;28;20531;-73
2022/05/14 02:47:53;;;;;;;6.73;2.60;;;9.40;99.90;;;;;;4991136;28;20272;-72
2022/05/14 02:50:19;;;;;;;7.97;3.03;;;9.30;99.90;;;;;;4990922;28;20544;-73
2022/05/14 02:52:45;;;;;;;10.83;2.80;;;9.40;99.90;;;;;;4990841;28;20720;-73
2022/05/14 02:55:11;;;;;;;4.80;2.50;;;9.40;99.90;;;;;;4991100;28;20269;-72
2022/05/14 02:57:37;;;;;;;4.30;2.80;;;9.30;99.90;;;;;;4991129;28;20254;-73
2022/05/14 03:00:06;;;;;;;5.87;2.80;;;9.30;99.90;;;;;;4991012;28;20174;-73
2022/05/14 03:02:32;;;;;;;4.83;2.57;;;9.30;99.90;;;;;;4990612;28;20197;-73
2022/05/14 03:04:57;;;;;;;3.70;2.60;;;9.30;99.90;;;;;;4990566;28;20651;-73
2022/05/14 03:07:23;;;;;;;5.80;2.97;;;9.30;99.90;;;;;;4990441;28;20177;-73
2022/05/14 03:09:48;;;;;;;5.03;2.70;;;9.30;99.90;;;;;;4990406;28;20544;-73
2022/05/14 03:12:15;;;;;;;3.70;2.87;;;9.30;99.90;;;;;;4990858;28;20178;-73
2022/05/14 03:14:41;;;;;;;5.57;2.60;;;9.30;99.90;;;;;;4990610;28;20608;-73
2022/05/14 03:17:09;;;;;;;5.40;2.83;;;9.20;99.90;;;;;;4990821;28;20211;-73
2022/05/14 03:19:35;;;;;;;7.07;2.80;;;9.20;99.90;;;;;;4989190;28;20598;-73
2022/05/14 03:22:01;;;;;;;8.37;2.93;;;9.20;99.90;;;;;;4990519;28;20170;-73
2022/05/14 03:24:27;;;;;;;9.20;3.20;;;9.10;99.90;;;;;;4991319;28;20219;-73
2022/05/14 03:26:53;;;;;;;6.13;3.10;;;9.10;99.90;;;;;;4990628;28;20675;-73
2022/05/14 03:29:19;;;;;;;5.43;2.73;;;9.20;99.90;;;;;;4990461;28;20197;-73
2022/05/14 03:31:45;;;;;;;6.57;2.90;;;9.10;99.90;;;;;;4993919;28;20535;-73
2022/05/14 03:34:11;;;;;;;7.13;2.73;;;9.10;99.90;;;;;;4993524;28;20173;-74
2022/05/14 03:36:39;;;;;;;7.00;2.93;;;9.10;99.90;;;;;;4991579;28;20177;-73
2022/05/14 03:39:05;;;;;;;4.27;2.97;;;9.00;99.90;;;;;;4993574;28;20280;-72
2022/05/14 03:41:31;;;;;;;10.17;2.63;;;9.00;99.90;;;;;;4993654;28;20180;-72
2022/05/14 03:43:57;;;;;;;6.67;3.03;;;9.10;99.90;;;;;;4992271;28;20174;-73
2022/05/14 03:46:22;;;;;;;5.30;2.33;;;9.10;99.90;;;;;;4992261;28;20182;-72
2022/05/14 03:48:48;;;;;;;5.37;3.07;;;9.10;99.90;;;;;;4993273;28;20201;-73
2022/05/14 03:51:14;;;;;;;5.57;2.70;;;9.00;99.90;;;;;;4993391;28;20238;-73
2022/05/14 03:53:40;;;;;;;3.93;2.80;;;9.00;99.90;;;;;;4993724;28;20598;-73
2022/05/14 03:56:07;;;;;;;6.73;3.00;;;9.00;99.90;;;;;;4993471;28;20247;-73
2022/05/14 03:58:32;;;;;;;3.50;2.67;;;9.00;99.90;;;;;;4992014;28;20657;-72
2022/05/14 04:00:58;;;;;;;4.27;2.63;;;9.00;99.90;;;;;;4993549;28;20216;-73
2022/05/14 04:03:25;;;;;;;5.30;2.63;;;9.00;99.90;;;;;;4992117;28;20197;-73
2022/05/14 04:05:51;;;;;;;5.27;2.77;;;9.00;99.90;;;;;;4993364;28;20184;-73
2022/05/14 04:08:17;;;;;;;5.47;2.63;;;9.00;99.90;;;;;;4992888;28;20710;-73
2022/05/14 04:10:46;;;;;;;3.70;2.47;;;9.00;99.90;;;;;;4991923;28;20548;-72
2022/05/14 04:13:14;;;;;;;6.23;3.20;;;9.00;99.90;;;;;;4991899;28;20185;-73
2022/05/14 04:15:40;;;;;;;4.27;2.63;;;9.10;99.90;;;;;;4993202;28;20174;-73
2022/05/14 04:18:06;;;;;;;4.40;2.47;;;9.00;99.90;;;;;;4991836;28;20591;-73
2022/05/14 04:20:32;;;;;;;4.10;2.70;;;9.00;99.90;;;;;;4991748;28;20651;-72
2022/05/14 04:22:58;;;;;;;6.30;2.80;;;9.10;99.90;;;;;;4993147;28;20235;-73
2022/05/14 04:25:24;;;;;;;4.50;2.70;;;9.10;99.90;;;;;;4991602;28;20220;-73
2022/05/14 04:27:50;;;;;;;4.53;2.60;;;9.10;99.90;;;;;;4992782;28;20239;-73
2022/05/14 04:30:16;;;;;;;5.10;2.40;;;9.10;99.90;;;;;;4993002;28;20178;-74
2022/05/14 04:32:43;;;;;;;3.83;2.33;;;9.10;99.90;;;;;;4992811;28;20284;-73
2022/05/14 04:35:10;;;;;;;3.63;2.60;;;9.10;99.90;;;;;;4993082;28;20221;-73
2022/05/14 04:37:36;;;;;;;5.57;2.70;;;9.10;99.90;;;;;;4992661;28;20569;-73
2022/05/14 04:40:02;;;;;;;6.57;3.00;;;9.10;99.90;;;;;;4992722;28;20170;-73
2022/05/14 04:42:28;;;;;;;4.93;2.63;;;9.10;99.90;;;;;;4992439;28;20200;-73
2022/05/14 04:44:53;;;;;;;6.03;2.40;;;9.10;99.90;;;;;;4992577;28;20536;-73
2022/05/14 04:47:19;;;;;;;4.43;2.30;;;9.20;99.90;;;;;;4991377;28;20181;-73
2022/05/14 04:49:47;;;;;;;2.67;1.97;;;9.20;99.90;;;;;;4992506;28;20227;-73
2022/05/14 04:52:12;;;;;;;5.03;2.57;;;9.20;99.90;;;;;;4991287;28;20174;-74
2022/05/14 04:54:38;;;;;;;3.63;2.27;;;9.20;99.90;;;;;;4991213;28;20753;-74
2022/05/14 04:57:04;;;;;;;4.50;2.57;;;9.20;99.90;;;;;;4992435;28;20173;-73
2022/05/14 04:59:30;;;;;;;5.93;2.40;;;9.20;99.90;;;;;;4991024;28;20190;-74
2022/05/14 05:04:44;;;;;;;3.43;2.50;;;9.30;99.90;;;;;;4992857;28;20202;-73
2022/05/14 05:07:10;;;;;;;3.97;2.97;;;9.30;99.90;;;;;;4992318;28;20249;-72
2022/05/14 05:09:36;;;;;;;5.23;3.10;;;9.40;99.90;;;;;;4990807;28;20217;-74
2022/05/14 05:12:01;;;;;;;3.90;2.40;;;9.50;99.90;;;;;;4992270;28;20174;-73
2022/05/14 05:14:27;;;;;;;4.70;2.80;;;9.50;99.90;;;;;;4992172;28;20592;-74
2022/05/14 05:16:53;;;;;;;10.20;2.80;;;9.50;99.90;;;;;;4992007;28;20651;-74
2022/05/14 05:19:19;;;;;;;5.97;2.57;;;9.50;99.90;;;;;;4991992;28;20197;-73
2022/05/14 05:21:46;;;;;;;7.43;2.80;;;9.60;99.90;;;;;;4992423;28;20184;-72
2022/05/14 05:24:11;;;;;;;4.27;2.20;;;9.60;99.90;;;;;;4991989;28;20181;-73
2022/05/14 05:26:38;;;;;;;5.57;2.40;;;9.70;99.90;;;;;;4992025;28;20200;-73
2022/05/14 05:29:05;;;;;;;4.33;2.40;;;9.70;99.90;;;;;;4991871;28;20197;-73
2022/05/14 05:31:32;;;;;;;6.10;2.30;;;9.70;99.90;;;;;;4991887;28;20256;-73
2022/05/14 05:34:01;;;;;;;3.47;2.50;;;9.70;99.90;;;;;;4991929;28;20170;-74
2022/05/14 05:36:26;;;;;;;4.07;2.40;;;9.70;99.90;;;;;;4990422;28;20173;-73
2022/05/14 05:38:52;;;;;;;6.63;2.60;;;9.70;99.90;;;;;;4991564;28;20235;-73
2022/05/14 05:41:19;;;;;;;4.87;2.87;;;9.80;99.90;;;;;;4991951;28;20170;-73
2022/05/14 05:43:45;;;;;;;2.57;2.30;;;9.80;99.90;;;;;;4991674;28;20184;-73
2022/05/14 05:46:11;;;;;;;5.27;2.17;;;9.80;99.90;;;;;;4991880;28;20210;-73
2022/05/14 05:48:37;;;;;;;2.83;2.50;;;9.90;99.90;;;;;;4991767;28;20194;-73
2022/05/14 05:51:03;;;;;;;4.10;2.57;;;9.90;99.90;;;;;;4990377;28;20552;-73
2022/05/14 05:58:57;;;;;;;7.37;2.77;;;10.10;99.90;;;;;;4991684;28;20213;-73
2022/05/14 06:01:23;;;;;;;5.20;3.47;;;10.10;99.90;;;;;;4990278;28;20184;-73
2022/05/14 06:03:49;;;;;;;6.33;3.37;;;10.20;99.90;;;;;;4991651;28;20174;-73
2022/05/14 06:06:15;;;;;;;7.63;3.10;;;10.30;99.90;;;;;;4991739;28;20249;-73
2022/05/14 06:08:40;;;;;;;10.13;3.53;;;10.30;99.90;;;;;;4990047;28;20225;-74
2022/05/14 06:11:06;;;;;;;10.90;3.70;;;10.40;99.90;;;;;;5022857;22;20240;-73
2022/05/14 06:13:32;;;;;;;8.20;3.27;;;10.50;99.90;;;;;;4991482;28;20194;-73
2022/05/14 06:16:00;;;;;;;11.40;3.33;;;10.60;99.90;;;;;;4990131;28;20286;-72
2022/05/14 06:18:28;;;;;;;7.03;3.03;;;10.70;99.90;;;;;;4991352;28;20202;-73
2022/05/14 06:20:54;;;;;;;8.90;2.97;;;10.80;99.90;;;;;;4991518;28;20251;-73
2022/05/14 06:23:20;;;;;;;8.10;3.43;;;10.90;99.90;;;;;;4991481;28;20166;-73
2022/05/14 06:25:45;;;;;;;7.03;2.97;;;11.00;99.90;;;;;;4990074;28;20523;-73
2022/05/14 06:28:12;;;;;;;6.00;2.97;;;11.10;99.90;;;;;;4991405;28;20178;-73
2022/05/14 06:30:41;;;;;;;5.73;2.60;;;11.20;99.90;;;;;;4989886;28;20264;-73
2022/05/14 06:33:08;;;;;;;6.90;2.97;;;11.30;99.90;;;;;;4990968;28;20174;-73
2022/05/14 06:35:36;;;;;;;6.90;2.80;;;11.40;99.90;;;;;;4990973;28;20216;-73
2022/05/14 06:38:03;;;;;;;7.50;2.83;;;11.50;99.90;;;;;;4990882;28;20289;-73
2022/05/14 06:40:29;;;;;;;6.93;3.63;;;11.60;99.90;;;;;;4990789;28;20257;-73
2022/05/14 06:42:56;;;;;;;7.50;2.83;;;11.70;99.90;;;;;;4991108;28;20178;-73
2022/05/14 06:45:22;;;;;;;7.30;3.20;;;11.70;99.90;;;;;;4990828;28;20671;-73
2022/05/14 06:47:47;;;;;;;8.03;3.10;;;11.80;99.90;;;;;;4989588;28;20268;-73
2022/05/14 06:50:13;;;;;;;9.63;3.87;;;11.80;99.90;;;;;;4991071;28;20592;-73
2022/05/14 06:52:44;;;;;;;8.13;3.47;;;12.20;99.90;;;;;;4990865;28;20318;-73
2022/05/14 06:55:14;;;;;;;9.37;4.30;;;12.10;99.90;;;;;;4991011;28;20218;-73
2022/05/14 06:57:41;;;;;;;13.83;4.20;;;12.10;99.90;;;;;;4990618;28;20698;-73
2022/05/14 07:00:08;;;;;;;11.10;3.93;;;12.30;99.90;;;;;;4990992;28;20232;-73
2022/05/14 07:02:35;;;;;;;12.83;4.37;;;12.40;99.90;;;;;;4990590;28;20190;-73
2022/05/14 07:07:45;;;;;;;9.40;4.07;;;12.60;99.90;;;;;;4994854;28;20173;-73
2022/05/14 07:10:10;;;;;;;9.20;4.47;;;12.70;99.90;;;;;;4994196;28;20182;-73
2022/05/14 07:12:36;;;;;;;10.73;4.17;;;12.60;99.90;;;;;;4993969;28;20266;-72
2022/05/14 07:15:03;;;;;;;12.33;4.70;;;12.70;99.90;;;;;;4994023;28;20177;-73
2022/05/14 07:17:29;;;;;;;10.43;4.10;;;12.70;99.90;;;;;;4992642;28;20259;-73
2022/05/14 07:19:54;;;;;;;11.73;4.77;;;12.80;99.90;;;;;;4992693;28;20635;-73
2022/05/14 07:22:20;;;;;;;19.37;4.80;;;12.90;99.90;;;;;;4993187;28;20249;-73
2022/05/14 07:24:47;;;;;;;9.83;4.20;;;13.00;99.90;;;;;;4994076;28;20166;-73
2022/05/14 07:27:13;;;;;;;11.57;4.83;;;13.00;99.90;;;;;;4993892;28;20173;-73
2022/05/14 07:29:41;;;;;;;10.10;4.23;;;13.10;99.90;;;;;;4992696;28;20271;-73
2022/05/14 07:32:13;;;;;;;11.23;4.93;;;13.20;99.90;;;;;;4992712;28;20610;-73
2022/05/14 07:34:40;;;;;;;13.10;4.40;;;13.20;99.90;;;;;;4993682;28;20268;-73
2022/05/14 07:37:16;;;;;;;14.40;5.30;;;13.30;99.90;;;;;;4992467;28;20203;-73
2022/05/14 07:39:55;;;;;;;11.47;4.37;;;13.30;99.90;;;;;;4993783;28;20158;-73
2022/05/14 07:42:37;;;;;;;13.23;4.17;;;13.50;1.00;;;;;;4993566;28;20193;-73
2022/05/14 07:45:04;;;;;;;9.90;4.43;;;13.60;1.00;;;;;;4994136;28;20177;-73
2022/05/14 07:47:31;;;;;;;8.57;4.33;;;13.60;1.00;;;;;;4993960;28;20209;-72
2022/05/14 07:49:59;;;;;;;13.53;4.80;;;13.70;1.60;;;;;;4993652;28;20206;-72
2022/05/14 07:52:24;;;;;;;12.50;5.17;;;13.70;1.00;;;;;;4993613;28;20205;-73
2022/05/14 07:54:50;;;;;;;11.03;5.00;;;13.80;1.00;;;;;;4992309;28;20598;-73
2022/05/14 07:57:18;;;;;;;14.07;4.60;;;13.80;1.00;;;;;;4993687;28;20265;-73
2022/05/14 07:59:44;;;;;;;13.53;4.67;;;13.90;1.00;;;;;;4993526;28;20170;-73
2022/05/14 08:02:26;;;;;;;13.77;4.93;;;14.00;1.00;;;;;;4993451;28;20616;-73
2022/05/14 08:04:52;;;;;;;19.60;5.53;;;14.10;1.00;;;;;;4993708;28;20166;-73
2022/05/14 08:07:18;;;;;;;12.80;4.27;;;14.20;1.00;;;;;;4992105;28;20188;-72
2022/05/14 08:09:44;;;;;;;12.07;4.97;;;14.20;1.00;;;;;;4992105;28;20177;-72
2022/05/14 08:12:11;;;;;;;12.53;4.70;;;14.30;1.00;;;;;;4993167;28;20262;-73
2022/05/14 08:14:39;;;;;;;11.80;4.40;;;14.30;1.00;;;;;;4992888;28;20181;-73
2022/05/14 08:17:09;;;;;;;14.00;4.57;;;14.40;1.00;;;;;;4990628;28;20197;-73
2022/05/14 08:19:34;;;;;;;14.43;5.27;;;14.40;1.00;;;;;;4993088;28;20304;-73
2022/05/14 08:24:44;;;;;;;13.80;5.60;;;14.50;1.00;;;;;;4993417;28;20212;-73
2022/05/14 08:27:11;;;;;;;12.23;4.50;;;14.60;1.00;;;;;;4991738;28;20177;-73
2022/05/14 08:29:38;;;;;;;8.60;3.87;;;14.70;1.00;;;;;;4992943;28;20214;-74
2022/05/14 08:32:04;;;;;;;13.17;4.37;;;14.80;1.00;;;;;;4991568;28;20205;-74
2022/05/14 08:34:30;;;;;;;11.87;4.30;;;14.80;1.00;;;;;;4993363;28;20490;-74
2022/05/14 08:36:56;;;;;;;19.03;4.43;;;14.80;1.00;;;;;;4993637;28;20181;-74
2022/05/14 08:39:22;;;;;;;14.30;4.50;;;14.90;1.00;;;;;;4991501;28;20304;-74
2022/05/14 08:41:50;;;;;;;16.20;5.17;;;15.00;1.00;;;;;;4993151;28;20239;-74
2022/05/14 08:44:30;;;;;;;10.20;4.47;;;15.10;99.90;;;;;;4991357;28;20182;-74
2022/05/14 08:47:00;;;;;;;8.30;4.30;;;15.20;1.00;;;;;;4991659;28;20170;-74
2022/05/14 08:49:47;;;;;;;12.27;4.00;;;15.30;99.90;;;;;;4992809;28;20587;-74
2022/05/14 08:52:21;;;;;;;13.23;4.30;;;15.50;1.00;;;;;;4992485;28;20197;-74
2022/05/14 08:54:49;;;;;;;11.47;4.00;;;15.60;1.00;;;;;;4992971;28;20519;-74
2022/05/14 08:57:34;;;;;;;11.37;3.97;;;15.70;99.90;;;;;;4992469;28;20174;-75
2022/05/14 09:00:01;;;;;;;11.47;3.93;;;15.70;59.40;;;;;;4992757;28;20215;-74
2022/05/14 09:02:30;;;;;;;15.60;3.90;;;15.80;99.90;;;;;;4992772;28;20198;-74
2022/05/14 09:05:06;;;;;;;15.50;4.27;;;15.90;1.00;;;;;;4990904;28;20181;-74
2022/05/14 09:07:32;;;;;;;10.60;4.17;;;16.00;99.90;;;;;;4992522;28;20181;-74
2022/05/14 09:09:58;;;;;;;10.83;4.20;;;16.10;1.00;;;;;;4991447;28;20232;-74
2022/05/14 09:12:33;;;;;;;12.90;4.53;;;16.20;99.90;;;;;;4992219;28;20225;-74
2022/05/14 09:15:11;;;;;;;12.70;4.10;;;16.20;1.00;;;;;;4991030;28;20189;-74
2022/05/14 09:17:38;;;;;;;14.87;4.33;;;16.30;99.90;;;;;;4991162;28;20713;-74
2022/05/14 09:20:04;;;;;;;14.43;4.33;;;16.30;1.00;;;;;;4992036;28;20703;-74
2022/05/14 09:22:53;;;;;;;12.83;4.37;;;16.40;1.00;;;;;;4990846;28;20225;-74
2022/05/14 09:25:29;;;;;;;13.13;4.37;;;16.50;99.90;;;;;;4992355;28;20176;-75
2022/05/14 09:28:03;;;;;;;10.33;3.60;;;16.60;99.90;;;;;;4991110;28;20712;-74
2022/05/14 09:30:36;;;;;;;12.83;3.83;;;16.70;1.00;;;;;;4992601;28;20553;-74
2022/05/14 09:33:03;;;;;;;10.50;3.63;;;16.80;1.00;;;;;;4990969;28;20180;-73
2022/05/14 09:35:32;;;;;;;11.97;4.33;;;16.90;1.00;;;;;;4992102;28;20224;-74
2022/05/14 09:38:18;;;;;;;11.93;4.03;;;17.00;99.90;;;;;;4991764;28;20201;-74
2022/05/14 09:40:44;;;;;;;14.53;3.97;;;17.00;1.00;;;;;;4992018;28;20162;-74
2022/05/14 09:43:15;;;;;;;11.90;4.43;;;17.10;1.00;;;;;;4990514;28;20178;-74
2022/05/14 09:45:44;;;;;;;12.83;4.33;;;17.20;84.20;;;;;;4990393;28;20258;-74
2022/05/14 09:48:17;;;;;;;16.93;4.37;;;17.30;1.00;;;;;;4991714;28;20272;-74
2022/05/14 09:50:46;;;;;;;13.07;4.07;;;17.30;1.00;;;;;;4991919;28;20178;-75
2022/05/14 09:53:11;;;;;;;12.60;4.37;;;17.40;99.90;;;;;;4991111;28;20230;-74
2022/05/14 09:55:47;;;;;;;12.00;4.10;;;17.50;99.90;;;;;;4990565;28;20201;-74
2022/05/14 09:58:25;;;;;;;12.33;4.23;;;17.50;1.00;;;;;;4991087;28;20247;-74
2022/05/14 10:01:31;;;;;;;14.53;4.00;;;17.50;1.00;;;;;;4989698;28;20198;-75
2022/05/14 10:04:05;;;;;;;10.97;4.03;;;17.60;99.90;;;;;;4979402;28;20197;-74
2022/05/14 10:07:08;;;;;;;14.97;3.97;;;17.60;1.00;;;;;;4989872;28;20662;-74
2022/05/14 10:09:52;;;;;;;9.30;3.27;;;17.70;99.90;;;;;;4931616;29;20198;-75
2022/05/14 10:12:48;;;;;;;13.83;4.10;;;17.80;99.90;;;;;;4986980;28;20312;-75
2022/05/14 10:15:49;;;;;;;12.97;4.73;;;17.90;1.00;;;;;;4990904;28;20689;-74
2022/05/14 10:18:39;;;;;;;12.10;3.37;;;18.10;1.00;;;;;;4990986;28;20216;-75
2022/05/14 10:21:27;;;;;;;11.00;3.40;;;18.20;1.00;;;;;;4989749;28;20193;-75
2022/05/14 10:27:39;;;;;;;15.23;3.40;;;18.40;99.90;;;;;;4971780;28;20192;-75
2022/05/14 10:30:25;;;;;;;19.73;3.87;;;18.40;1.00;;;;;;4971842;28;20171;-74
2022/05/14 10:33:03;;;;;;;13.50;3.73;;;18.40;1.00;;;;;;4970169;28;20252;-75
2022/05/14 10:36:13;;;;;;;11.30;3.73;;;18.50;1.00;;;;;;4983665;28;20651;-75
2022/05/14 10:39:03;;;;;;;9.63;3.80;;;18.60;99.90;;;;;;4979902;28;20253;-75
2022/05/14 10:41:42;;;;;;;10.77;3.43;;;18.60;1.00;;;;;;4989508;28;20193;-75
2022/05/14 10:44:14;;;;;;;11.57;3.10;;;18.40;76.50;;;;;;4990368;28;20189;-75
2022/05/14 10:46:41;;;;;;;12.20;3.70;;;18.40;99.90;;;;;;4977039;28;20558;-74
2022/05/14 10:49:24;;;;;;;8.37;3.10;;;18.60;1.00;;;;;;4989454;28;20213;-75
2022/05/14 10:51:53;;;;;;;9.93;3.33;;;18.80;99.90;;;;;;4990683;28;20243;-75
2022/05/14 10:54:21;;;;;;;8.93;3.33;;;19.10;1.00;;;;;;4991201;28;20170;-75
2022/05/14 10:56:54;;;;;;;9.13;3.70;;;19.30;1.00;;;;;;4990724;28;20227;-75
2022/05/14 11:00:10;;;;;;;11.77;3.50;;;19.30;99.90;;;;;;4989116;28;20295;-75
2022/05/14 11:02:51;;;;;;;10.87;3.57;;;19.50;1.00;;;;;;4930769;29;20250;-75
2022/05/14 11:05:47;;;;;;;11.50;3.43;;;19.70;1.00;;;;;;4931507;29;20535;-74
2022/05/14 11:08:25;;;;;;;14.80;4.13;;;19.80;85.40;;;;;;4982485;28;20209;-75
2022/05/14 11:11:10;;;;;;;13.77;3.60;;;19.60;1.00;;;;;;4990757;28;20209;-75
2022/05/14 11:13:36;;;;;;;7.60;3.57;;;19.60;1.00;;;;;;4989394;28;20186;-75
2022/05/14 11:16:10;;;;;;;9.53;3.40;;;19.60;1.00;;;;;;4990389;28;20667;-75
2022/05/14 11:19:04;;;;;;;15.37;4.70;;;19.80;1.00;;;;;;4989143;28;20219;-75
2022/05/14 11:21:35;;;;;;;11.87;3.57;;;19.70;1.00;;;;;;4988197;28;20683;-75
2022/05/14 11:24:02;;;;;;;13.40;3.37;;;19.90;1.00;;;;;;4989292;28;20207;-75
2022/05/14 11:26:28;;;;;;;9.50;2.80;;;20.00;1.00;;;;;;4989127;28;20560;-75
2022/05/14 11:29:09;;;;;;;12.27;3.67;;;20.10;6.10;;;;;;4990462;28;20177;-75
2022/05/14 11:31:39;;;;;;;13.03;3.43;;;20.30;91.50;;;;;;4989105;28;20570;-75
2022/05/14 11:34:17;;;;;;;12.07;3.93;;;20.50;87.60;;;;;;4990837;28;20162;-75
2022/05/14 11:36:51;;;;;;;12.27;3.33;;;20.60;99.90;;;;;;4989539;28;20204;-74
2022/05/14 11:39:43;;;;;;;11.37;3.90;;;20.60;1.00;;;;;;4990252;28;20198;-75
2022/05/14 11:42:27;;;;;;;11.90;3.53;;;20.50;99.90;;;;;;4990701;28;20668;-75
2022/05/14 11:45:11;;;;;;;8.57;3.23;;;20.40;99.90;;;;;;4989058;28;20635;-75
2022/05/14 11:47:51;;;;;;;9.13;3.20;;;20.60;99.90;;;;;;4988924;28;20299;-75
2022/05/14 11:50:20;;;;;;;15.93;4.03;;;20.70;99.90;;;;;;4990105;28;20165;-75
2022/05/14 11:53:07;;;;;;;15.80;4.33;;;20.80;99.90;;;;;;4993333;28;20589;-74
2022/05/14 11:55:45;;;;;;;13.47;3.40;;;20.80;99.90;;;;;;4992093;28;20170;-75
2022/05/14 11:58:18;;;;;;;14.13;4.10;;;20.90;99.90;;;;;;4993141;28;20192;-75
2022/05/14 12:00:48;;;;;;;9.37;3.30;;;20.80;99.90;;;;;;4993201;28;20235;-75
2022/05/14 12:03:33;;;;;;;11.23;2.87;;;21.00;99.90;;;;;;4992081;28;20276;-75
2022/05/14 12:06:15;;;;;;;6.87;3.13;;;20.90;99.90;;;;;;4993913;28;20164;-75
2022/05/14 12:08:55;;;;;;;9.10;3.13;;;20.80;99.90;;;;;;4993245;28;20633;-74
2022/05/14 12:11:30;;;;;;;10.43;3.77;;;20.70;99.90;;;;;;5010746;23;20230;-92
2022/05/14 12:14:10;;;;;;;8.70;3.00;;;20.90;99.90;;;;;;5017472;28;20181;-93
2022/05/14 12:16:47;;;;;;;7.87;3.00;;;20.70;99.90;;;;;;4997933;28;20181;-94
2022/05/14 12:19:21;;;;;;;9.50;3.20;;;20.60;99.90;;;;;;4998076;28;20237;-94
2022/05/14 12:22:22;;;;;;;9.80;3.57;;;21.00;99.90;;;;;;4998037;28;20167;-93
2022/05/14 12:25:00;;;;;;;12.80;3.90;;;20.70;1.00;;;;;;5005225;28;20169;-94
2022/05/14 12:27:28;;;;;;;9.93;3.43;;;20.70;1.00;;;;;;5017943;28;20178;-94
2022/05/14 12:33:11;;;;;;;8.73;2.80;;;20.60;70.50;;;;;;5017806;28;20161;-93
2022/05/14 12:33:14;;;;;;;8.57;2.73;;;20.80;99.90;;;;;;5018382;28;20164;-91
2022/05/14 12:35:54;;;;;;;10.03;3.57;;;20.90;39.70;;;;;;5018535;28;20245;-94
2022/05/14 12:38:28;;;;;;;8.27;2.83;;;20.90;99.90;;;;;;5017787;28;20209;-93
2022/05/14 12:41:11;;;;;;;;;;;;;;;;;;;;;
2022/05/14 12:43:46;;;;;;;11.87;3.37;;;20.70;99.90;;;;;;5018288;27;20209;-93
2022/05/14 12:46:38;;;;;;;11.77;3.40;;;20.80;99.90;;;;;;5017246;28;20186;-94
2022/05/14 12:49:06;;;;;;;9.13;3.07;;;20.70;99.90;;;;;;5017562;28;20166;-93
2022/05/14 12:51:50;;;;;;;11.00;2.90;;;20.80;99.90;;;;;;5017436;28;20178;-93
2022/05/14 12:54:34;;;;;;;13.03;3.27;;;20.80;1.00;;;;;;5017271;28;20168;-93
2022/05/14 12:57:08;;;;;;;7.43;2.60;;;20.80;1.00;;;;;;5017334;28;20269;-93
2022/05/14 12:59:42;;;;;;;7.90;2.83;;;20.90;1.00;;;;;;5017375;28;20268;-92
2022/05/14 13:02:22;;;;;;;9.83;2.80;;;21.10;1.00;;;;;;5017457;28;20170;-94
2022/05/14 13:05:22;;;;;;;7.23;2.63;;;20.80;1.00;;;;;;5019450;28;20189;-94
2022/05/14 13:07:57;;;;;;;11.17;3.67;;;21.10;1.00;;;;;;5016920;28;20189;-91
2022/05/14 13:10:27;;;;;;;10.93;3.50;;;21.00;1.00;;;;;;5017330;28;20245;-94
2022/05/14 13:12:59;;;;;;;9.93;2.80;;;20.80;21.30;;;;;;5016694;28;20189;-94
2022/05/14 13:15:38;;;;;;;9.23;2.70;;;20.80;21.10;;;;;;5017187;28;20193;-94
2022/05/14 13:18:22;;;;;;;10.83;2.70;;;21.00;1.00;;;;;;5015711;27;20201;-93
2022/05/14 13:21:04;;;;;;;8.90;2.80;;;21.10;93.30;;;;;;5017283;28;20184;-93
2022/05/14 13:23:34;;;;;;;8.50;2.63;;;21.20;22.10;;;;;;5017051;28;20173;-93
2022/05/14 13:26:08;;;;;;;8.43;3.17;;;21.00;58.40;;;;;;5013449;28;20261;-94
2022/05/14 13:28:36;;;;;;;8.20;2.87;;;21.50;1.00;;;;;;4997254;28;20162;-92
2022/05/14 13:31:22;;;;;;;9.97;2.37;;;21.60;1.00;;;;;;4997185;28;20183;-93